createdAt,value
2023-01-12T00:00:10.489Z,100.00
2023-01-12T00:02:36.823Z,100.00
2023-01-12T00:05:03.086Z,100.00
2023-01-12T00:07:29.501Z,100.00
2023-01-12T00:09:55.814Z,100.00
2023-01-12T00:12:22.228Z,100.00
2023-01-12T00:14:48.534Z,100.00
2023-01-12T00:17:14.896Z,100.00
2023-01-12T00:19:41.273Z,100.00
2023-01-12T00:22:07.599Z,100.00
2023-01-12T00:24:33.941Z,100.00
2023-01-12T00:27:00.306Z,100.00
2023-01-12T00:29:26.703Z,100.00
2023-01-12T00:31:53.086Z,100.00
2023-01-12T00:34:19.458Z,100.00
2023-01-12T00:36:45.774Z,100.00
2023-01-12T00:39:12.140Z,100.00
2023-01-12T00:41:38.469Z,100.00
2023-01-12T00:44:04.815Z,100.00
2023-01-12T00:46:31.239Z,100.00
2023-01-12T00:48:57.565Z,100.00
2023-01-12T00:51:23.935Z,100.00
2023-01-12T00:53:50.274Z,100.00
2023-01-12T00:56:16.762Z,100.00
2023-01-12T00:58:43.077Z,100.00
2023-01-12T01:01:09.457Z,100.00
2023-01-12T01:03:35.782Z,100.00
2023-01-12T01:06:02.149Z,100.00
2023-01-12T01:08:36.183Z,100.00
2023-01-12T01:11:02.651Z,100.00
2023-01-12T01:13:29.027Z,100.00
2023-01-12T01:15:55.440Z,100.00
2023-01-12T01:18:21.845Z,100.00
2023-01-12T01:20:48.212Z,100.00
2023-01-12T01:23:14.577Z,100.00
2023-01-12T01:25:40.943Z,100.00
2023-01-12T01:28:07.302Z,100.00
2023-01-12T01:30:33.623Z,100.00
2023-01-12T01:33:00.000Z,100.00
2023-01-12T01:35:26.356Z,100.00
2023-01-12T01:37:52.652Z,100.00
2023-01-12T01:40:19.042Z,100.00
2023-01-12T01:42:45.399Z,100.00
2023-01-12T01:45:11.745Z,100.00
2023-01-12T01:47:38.085Z,100.00
2023-01-12T01:50:04.457Z,100.00
2023-01-12T01:52:30.825Z,100.00
2023-01-12T01:54:57.202Z,100.00
2023-01-12T01:57:23.595Z,100.00
2023-01-12T01:59:49.912Z,100.00
2023-01-12T02:02:16.366Z,100.00
2023-01-12T02:04:42.604Z,100.00
2023-01-12T02:07:08.986Z,100.00
2023-01-12T02:09:35.344Z,100.00
2023-01-12T02:12:01.724Z,100.00
2023-01-12T02:14:28.130Z,100.00
2023-01-12T02:16:54.484Z,100.00
2023-01-12T02:19:20.827Z,100.00
2023-01-12T02:21:47.204Z,100.00
2023-01-12T02:24:13.540Z,100.00
2023-01-12T02:26:39.906Z,100.00
2023-01-12T02:29:06.234Z,100.00
2023-01-12T02:31:32.620Z,100.00
2023-01-12T02:33:58.933Z,100.00
2023-01-12T02:36:25.290Z,100.00
2023-01-12T02:38:51.656Z,100.00
2023-01-12T02:41:18.028Z,100.00
2023-01-12T02:43:44.340Z,100.00
2023-01-12T02:46:10.729Z,100.00
2023-01-12T02:48:37.002Z,100.00
2023-01-12T02:51:03.371Z,100.00
2023-01-12T02:53:29.729Z,100.00
2023-01-12T02:55:56.099Z,100.00
2023-01-12T02:58:22.418Z,100.00
2023-01-12T03:00:48.747Z,100.00
2023-01-12T03:03:15.193Z,100.00
2023-01-12T03:05:41.497Z,100.00
2023-01-12T03:08:07.876Z,100.00
2023-01-12T03:10:34.224Z,100.00
2023-01-12T03:13:00.595Z,100.00
2023-01-12T03:15:26.908Z,100.00
2023-01-12T03:17:53.263Z,100.00
2023-01-12T03:20:19.647Z,100.00
2023-01-12T03:22:46.001Z,100.00
2023-01-12T03:25:12.383Z,100.00
2023-01-12T03:27:38.734Z,100.00
2023-01-12T03:30:05.105Z,100.00
2023-01-12T03:32:31.478Z,100.00
2023-01-12T03:34:57.821Z,100.00
2023-01-12T03:37:24.176Z,100.00
2023-01-12T03:39:50.514Z,100.00
2023-01-12T03:42:16.892Z,100.00
2023-01-12T03:44:43.266Z,100.00
2023-01-12T03:47:09.666Z,100.00
2023-01-12T03:49:35.979Z,100.00
2023-01-12T03:52:02.299Z,100.00
2023-01-12T03:54:28.644Z,100.00
2023-01-12T03:56:54.987Z,100.00
2023-01-12T03:59:21.374Z,100.00
2023-01-12T04:01:47.853Z,100.00
2023-01-12T04:04:14.027Z,100.00
2023-01-12T04:06:40.378Z,100.00
2023-01-12T04:09:06.727Z,100.00
2023-01-12T04:11:33.049Z,100.00
2023-01-12T04:13:59.424Z,100.00
2023-01-12T04:16:25.840Z,100.00
2023-01-12T04:18:52.079Z,100.00
2023-01-12T04:21:18.400Z,100.00
2023-01-12T04:23:44.789Z,100.00
2023-01-12T04:26:11.207Z,100.00
2023-01-12T04:28:37.556Z,100.00
2023-01-12T04:31:03.911Z,100.00
2023-01-12T04:33:30.243Z,100.00
2023-01-12T04:35:56.576Z,100.00
2023-01-12T04:38:22.903Z,100.00
2023-01-12T04:40:49.227Z,100.00
2023-01-12T04:43:15.613Z,100.00
2023-01-12T04:45:42.094Z,100.00
2023-01-12T04:48:08.371Z,100.00
2023-01-12T04:50:34.692Z,100.00
2023-01-12T04:53:01.079Z,100.00
2023-01-12T04:55:27.411Z,100.00
2023-01-12T04:57:53.750Z,100.00
2023-01-12T05:00:20.071Z,100.00
2023-01-12T05:02:46.419Z,100.00
2023-01-12T05:05:12.811Z,100.00
2023-01-12T05:07:39.139Z,100.00
2023-01-12T05:10:05.494Z,100.00
2023-01-12T05:12:31.848Z,100.00
2023-01-12T05:14:58.156Z,100.00
2023-01-12T05:17:24.520Z,100.00
2023-01-12T05:19:50.882Z,100.00
2023-01-12T05:22:19.374Z,100.00
2023-01-12T05:24:45.747Z,100.00
2023-01-12T05:27:12.093Z,100.00
2023-01-12T05:29:38.497Z,100.00
2023-01-12T05:32:04.907Z,100.00
2023-01-12T05:34:31.265Z,100.00
2023-01-12T05:36:57.639Z,100.00
2023-01-12T05:39:23.953Z,100.00
2023-01-12T05:41:50.337Z,100.00
2023-01-12T05:44:16.652Z,100.00
2023-01-12T05:46:43.033Z,100.00
2023-01-12T05:49:09.349Z,100.00
2023-01-12T05:51:35.733Z,100.00
2023-01-12T05:54:02.057Z,100.00
2023-01-12T05:56:28.418Z,100.00
2023-01-12T05:58:54.764Z,100.00
2023-01-12T06:01:21.155Z,100.00
2023-01-12T06:03:47.528Z,100.00
2023-01-12T06:06:13.909Z,100.00
2023-01-12T06:08:40.275Z,100.00
2023-01-12T06:11:06.659Z,100.00
2023-01-12T06:13:32.970Z,100.00
2023-01-12T06:15:59.364Z,100.00
2023-01-12T06:18:25.664Z,100.00
2023-01-12T06:20:52.085Z,100.00
2023-01-12T06:23:18.396Z,100.00
2023-01-12T06:25:44.736Z,100.00
2023-01-12T06:28:11.063Z,100.00
2023-01-12T06:30:37.407Z,100.00
2023-01-12T06:33:03.878Z,100.00
2023-01-12T06:35:30.230Z,100.00
2023-01-12T06:37:56.558Z,100.00
2023-01-12T06:40:22.912Z,100.00
2023-01-12T06:42:49.322Z,100.00
2023-01-12T06:45:15.728Z,100.00
2023-01-12T06:47:42.042Z,100.00
2023-01-12T06:50:08.433Z,100.00
2023-01-12T06:52:34.793Z,100.00
2023-01-12T06:55:01.231Z,100.00
2023-01-12T06:57:27.493Z,100.00
2023-01-12T06:59:53.820Z,100.00
2023-01-12T07:02:20.254Z,100.00
2023-01-12T07:04:46.622Z,100.00
2023-01-12T07:07:12.944Z,100.00
2023-01-12T07:09:39.267Z,100.00
2023-01-12T07:12:05.588Z,100.00
2023-01-12T07:53:17.147Z,100.00
2023-01-12T07:55:43.508Z,100.00
2023-01-12T07:58:09.891Z,100.00
2023-01-12T08:00:36.760Z,100.00
2023-01-12T08:03:03.106Z,100.00
2023-01-12T08:05:29.490Z,100.00
2023-01-12T08:07:55.795Z,100.00
2023-01-12T08:10:22.611Z,100.00
2023-01-12T08:12:48.970Z,100.00
2023-01-12T08:15:15.372Z,100.00
2023-01-12T08:17:41.730Z,100.00
2023-01-12T08:20:08.106Z,100.00
2023-01-12T08:22:34.455Z,100.00
2023-01-12T08:25:00.815Z,100.00
2023-01-12T08:27:27.142Z,100.00
2023-01-12T08:29:53.524Z,100.00
2023-01-12T08:32:19.905Z,100.00
2023-01-12T08:34:46.256Z,100.00
2023-01-12T08:37:12.587Z,100.00
2023-01-12T08:39:39.038Z,100.00
2023-01-12T08:42:05.353Z,100.00
2023-01-12T08:44:31.832Z,100.00
2023-01-12T08:46:58.235Z,100.00
2023-01-12T08:49:24.668Z,100.00
2023-01-12T08:51:51.092Z,100.00
2023-01-12T08:54:17.431Z,100.00
2023-01-12T08:56:43.807Z,100.00
2023-01-12T08:59:10.129Z,100.00
2023-01-12T09:01:36.797Z,100.00
2023-01-12T09:04:02.998Z,100.00
2023-01-12T09:06:29.401Z,100.00
2023-01-12T09:08:55.864Z,100.00
2023-01-12T09:11:22.204Z,100.00
2023-01-12T09:13:48.523Z,100.00
2023-01-12T09:16:15.023Z,99.78
2023-01-12T09:18:41.326Z,99.58
2023-01-12T09:21:07.731Z,99.27
2023-01-12T09:23:33.994Z,98.92
2023-01-12T09:26:00.589Z,98.84
2023-01-12T09:28:27.093Z,98.74
2023-01-12T09:30:53.402Z,98.75
2023-01-12T09:33:19.773Z,98.65
2023-01-12T09:35:46.101Z,98.46
2023-01-12T09:38:12.515Z,98.29
2023-01-12T09:40:38.964Z,97.94
2023-01-12T09:43:05.281Z,97.77
2023-01-12T09:45:31.746Z,97.70
2023-01-12T09:47:59.695Z,97.41
2023-01-12T09:50:26.096Z,98.60
2023-01-12T09:52:52.525Z,100.00
2023-01-12T09:55:18.856Z,100.00
2023-01-12T09:57:45.256Z,100.00
2023-01-12T10:00:11.653Z,100.00
2023-01-12T10:02:38.206Z,99.93
2023-01-12T10:05:04.506Z,98.93
2023-01-12T10:07:30.861Z,98.14
2023-01-12T10:09:57.221Z,97.54
2023-01-12T10:12:23.627Z,96.74
2023-01-12T10:14:57.315Z,96.00
2023-01-12T10:17:23.679Z,95.41
2023-01-12T10:19:51.089Z,94.91
2023-01-12T10:22:17.277Z,94.77
2023-01-12T10:24:43.701Z,94.44
2023-01-12T10:27:10.143Z,94.14
2023-01-12T10:29:36.498Z,93.86
2023-01-12T10:32:02.912Z,93.78
2023-01-12T10:34:29.473Z,93.74
2023-01-12T10:36:55.983Z,93.54
2023-01-12T10:39:22.259Z,93.39
2023-01-12T10:41:48.897Z,93.23
2023-01-12T10:44:15.328Z,93.12
2023-01-12T10:46:41.748Z,92.97
2023-01-12T10:49:08.225Z,92.91
2023-01-12T10:51:34.614Z,92.83
2023-01-12T10:54:01.457Z,92.92
2023-01-12T10:56:27.866Z,94.70
2023-01-12T10:58:54.236Z,96.95
2023-01-12T11:01:20.719Z,97.54
2023-01-12T11:03:47.037Z,96.91
2023-01-12T11:06:13.411Z,96.26
2023-01-12T11:08:39.795Z,95.50
2023-01-12T11:11:06.387Z,94.97
2023-01-12T11:13:32.809Z,94.61
2023-01-12T11:15:59.723Z,94.35
2023-01-12T11:18:26.045Z,93.99
2023-01-12T11:20:52.413Z,93.70
2023-01-12T11:23:19.409Z,93.59
2023-01-12T11:25:45.805Z,93.40
2023-01-12T11:28:12.825Z,93.25
2023-01-12T11:30:39.303Z,93.09
2023-01-12T11:33:05.598Z,92.93
2023-01-12T11:35:31.914Z,92.76
2023-01-12T11:37:58.289Z,92.55
2023-01-12T11:40:24.645Z,92.33
2023-01-12T11:42:51.200Z,92.15
2023-01-12T11:45:17.629Z,92.10
2023-01-12T11:47:44.131Z,92.08
2023-01-12T11:50:10.529Z,91.99
2023-01-12T11:52:36.877Z,91.89
2023-01-12T11:55:03.262Z,91.76
2023-01-12T11:57:29.598Z,91.72
2023-01-12T11:59:56.011Z,92.47
2023-01-12T12:02:22.505Z,94.75
2023-01-12T12:04:48.906Z,96.69
2023-01-12T12:07:15.228Z,96.14
2023-01-12T12:09:41.615Z,95.06
2023-01-12T12:12:07.920Z,94.28
2023-01-12T12:14:34.290Z,93.61
2023-01-12T12:17:00.874Z,93.06
2023-01-12T12:19:27.281Z,92.42
2023-01-12T12:21:53.635Z,92.07
2023-01-12T12:24:20.003Z,91.83
2023-01-12T12:26:46.377Z,91.50
2023-01-12T12:29:13.295Z,91.30
2023-01-12T12:31:39.654Z,91.18
2023-01-12T12:34:06.078Z,91.02
2023-01-12T12:36:32.671Z,90.83
2023-01-12T12:38:59.033Z,90.65
2023-01-12T12:41:25.359Z,90.57
2023-01-12T12:43:51.740Z,90.43
2023-01-12T12:46:18.213Z,90.39
2023-01-12T12:48:44.558Z,90.40
2023-01-12T12:51:10.998Z,90.30
2023-01-12T12:53:37.374Z,90.09
2023-01-12T12:56:04.012Z,90.04
2023-01-12T12:58:30.647Z,90.00
2023-01-12T13:00:57.072Z,90.04
2023-01-12T13:03:23.394Z,90.11
2023-01-12T13:05:49.813Z,91.41
2023-01-12T13:08:16.200Z,93.37
2023-01-12T13:10:42.557Z,94.39
2023-01-12T13:13:08.964Z,93.92
2023-01-12T13:15:35.344Z,93.31
2023-01-12T13:18:01.653Z,92.72
2023-01-12T13:20:28.017Z,92.18
2023-01-12T13:22:54.493Z,91.78
2023-01-12T13:25:20.877Z,91.52
2023-01-12T13:27:47.308Z,91.43
2023-01-12T13:30:13.685Z,91.26
2023-01-12T13:32:40.047Z,91.06
2023-01-12T13:35:06.529Z,90.93
2023-01-12T13:37:32.931Z,90.82
2023-01-12T13:39:59.311Z,90.71
2023-01-12T13:42:25.872Z,90.63
2023-01-12T13:44:52.287Z,90.52
2023-01-12T13:47:18.731Z,90.50
2023-01-12T13:49:45.147Z,90.47
2023-01-12T13:52:11.465Z,90.41
2023-01-12T13:54:37.787Z,90.38
2023-01-12T13:57:04.391Z,90.44
2023-01-12T13:59:30.782Z,90.45
2023-01-12T14:01:57.202Z,90.40
2023-01-12T14:04:23.856Z,90.29
2023-01-12T14:06:50.295Z,90.26
2023-01-12T14:09:16.634Z,90.45
2023-01-12T14:11:42.952Z,92.16
2023-01-12T14:14:09.534Z,94.18
2023-01-12T14:16:35.930Z,94.52
2023-01-12T14:19:02.252Z,93.93
2023-01-12T14:21:28.638Z,93.19
2023-01-12T14:23:55.051Z,92.50
2023-01-12T14:26:21.492Z,92.00
2023-01-12T14:28:47.924Z,91.63
2023-01-12T14:31:14.344Z,91.31
2023-01-12T14:33:40.643Z,91.24
2023-01-12T14:36:07.050Z,88.95
2023-01-12T14:38:33.424Z,84.17
2023-01-12T14:40:59.957Z,81.75
2023-01-12T14:43:26.382Z,79.28
2023-01-12T14:45:52.831Z,78.64
2023-01-12T14:48:19.203Z,78.17
2023-01-12T14:50:45.826Z,77.72
2023-01-12T14:53:12.142Z,77.15
2023-01-12T14:55:38.512Z,77.05
2023-01-12T14:58:05.126Z,77.18
2023-01-12T15:00:31.614Z,76.90
2023-01-12T15:02:57.884Z,77.13
2023-01-12T15:05:24.334Z,76.81
2023-01-12T15:07:50.670Z,76.50
2023-01-12T15:10:17.076Z,76.50
2023-01-12T15:12:43.572Z,76.38
2023-01-12T15:15:10.195Z,75.88
2023-01-12T15:17:36.592Z,76.16
2023-01-12T15:20:03.301Z,76.76
2023-01-12T15:22:29.604Z,80.07
2023-01-12T15:24:55.970Z,82.48
2023-01-12T15:27:22.364Z,83.80
2023-01-12T15:29:48.687Z,84.74
2023-01-12T15:32:15.056Z,85.35
2023-01-12T15:34:43.571Z,85.77
2023-01-12T15:37:09.965Z,86.13
2023-01-12T15:39:36.264Z,86.42
2023-01-12T15:42:02.913Z,86.65
2023-01-12T15:44:29.264Z,86.82
2023-01-12T15:46:55.836Z,86.90
2023-01-12T15:49:22.228Z,87.05
2023-01-12T15:51:48.582Z,87.20
2023-01-12T15:54:14.912Z,87.30
2023-01-12T15:56:41.601Z,87.35
2023-01-12T15:59:07.917Z,87.33
2023-01-12T16:01:35.966Z,88.30
2023-01-12T16:04:36.057Z,90.27
2023-01-12T16:06:27.054Z,92.03
2023-01-12T16:08:53.367Z,93.52
2023-01-12T16:11:19.746Z,93.41
2023-01-12T16:13:46.067Z,92.73
2023-01-12T16:16:12.729Z,92.05
2023-01-12T16:18:39.007Z,91.41
2023-01-12T16:21:05.380Z,90.97
2023-01-12T16:23:31.794Z,90.50
2023-01-12T16:25:58.493Z,90.18
2023-01-12T16:28:24.848Z,89.80
2023-01-12T16:30:51.256Z,89.54
2023-01-12T16:33:18.103Z,89.45
2023-01-12T16:35:44.407Z,89.32
2023-01-12T16:38:10.777Z,89.13
2023-01-12T16:40:37.159Z,89.03
2023-01-12T16:43:03.593Z,88.93
2023-01-12T16:45:30.033Z,88.88
2023-01-12T16:47:56.395Z,90.01
2023-01-12T16:50:22.960Z,91.99
2023-01-12T16:52:49.328Z,93.81
2023-01-12T16:55:15.724Z,95.08
2023-01-12T16:57:42.139Z,94.73
2023-01-12T17:00:08.458Z,93.84
2023-01-12T17:02:35.026Z,92.99
2023-01-12T17:05:01.533Z,92.32
2023-01-12T17:07:27.945Z,91.68
2023-01-12T17:09:54.321Z,91.15
2023-01-12T17:12:20.703Z,90.70
2023-01-12T17:14:47.198Z,90.36
2023-01-12T17:17:13.511Z,90.01
2023-01-12T17:19:42.452Z,89.66
2023-01-12T17:22:08.844Z,89.55
2023-01-12T17:24:35.308Z,89.41
2023-01-12T17:27:01.726Z,89.24
2023-01-12T17:29:28.221Z,88.89
2023-01-12T17:31:55.678Z,88.72
2023-01-12T17:34:21.211Z,90.23
2023-01-12T17:36:47.549Z,92.30
2023-01-12T17:39:13.927Z,94.16
2023-01-12T17:41:40.275Z,95.14
2023-01-12T17:44:06.922Z,94.53
2023-01-12T17:46:33.283Z,93.60
2023-01-12T17:48:59.640Z,93.56
2023-01-12T17:51:26.003Z,94.49
2023-01-12T17:53:52.336Z,94.14
2023-01-12T17:56:18.738Z,93.31
2023-01-12T17:58:45.187Z,92.40
2023-01-12T18:01:11.590Z,91.74
2023-01-12T18:03:37.813Z,92.74
2023-01-12T18:06:07.007Z,93.42
2023-01-12T18:08:30.885Z,93.06
2023-01-12T18:10:57.205Z,92.60
2023-01-12T18:13:23.540Z,92.11
2023-01-12T18:15:49.907Z,91.61
2023-01-12T18:18:16.376Z,91.24
2023-01-12T18:20:42.764Z,92.90
2023-01-12T18:23:09.464Z,95.01
2023-01-12T18:25:35.989Z,96.87
2023-01-12T18:28:02.345Z,97.73
2023-01-12T18:30:28.713Z,97.16
2023-01-12T18:32:55.454Z,96.13
2023-01-12T18:35:21.764Z,95.11
2023-01-12T18:37:48.086Z,94.21
2023-01-12T18:40:14.508Z,93.38
2023-01-12T18:42:41.180Z,92.64
2023-01-12T18:45:07.551Z,92.13
2023-01-12T18:47:33.954Z,91.66
2023-01-12T18:50:00.291Z,91.22
2023-01-12T18:52:26.650Z,90.86
2023-01-12T18:54:52.975Z,90.63
2023-01-12T18:57:19.317Z,90.36
2023-01-12T18:59:45.732Z,90.37
2023-01-12T19:02:12.097Z,92.05
2023-01-12T19:04:38.503Z,92.51
2023-01-12T19:07:04.961Z,94.25
2023-01-12T19:09:31.341Z,96.26
2023-01-12T19:11:57.817Z,98.08
2023-01-12T19:14:24.138Z,98.63
2023-01-12T19:16:50.483Z,97.81
2023-01-12T19:19:16.913Z,96.65
2023-01-12T19:21:43.328Z,95.53
2023-01-12T19:24:09.711Z,94.55
2023-01-12T19:26:36.123Z,93.68
2023-01-12T19:29:02.534Z,92.95
2023-01-12T19:31:28.937Z,92.47
2023-01-12T19:33:57.645Z,92.03
2023-01-12T19:36:24.024Z,91.73
2023-01-12T19:38:50.767Z,91.45
2023-01-12T19:41:17.680Z,91.20
2023-01-12T19:43:44.001Z,90.78
2023-01-12T19:46:10.456Z,90.51
2023-01-12T19:48:36.762Z,90.29
2023-01-12T19:51:03.079Z,90.83
2023-01-12T19:53:31.909Z,92.86
2023-01-12T19:55:58.268Z,95.02
2023-01-12T19:58:24.685Z,96.95
2023-01-12T20:00:51.230Z,96.98
2023-01-12T20:03:20.156Z,96.07
2023-01-12T20:05:46.522Z,94.96
2023-01-12T20:08:12.926Z,94.00
2023-01-12T20:10:39.297Z,93.19
2023-01-12T20:13:05.729Z,92.41
2023-01-12T20:15:32.141Z,91.82
2023-01-12T20:17:58.521Z,91.32
2023-01-12T20:20:24.928Z,90.87
2023-01-12T20:22:51.427Z,94.46
2023-01-12T20:25:18.243Z,100.00
2023-01-12T20:27:44.840Z,100.00
2023-01-12T20:30:12.366Z,100.00
2023-01-12T20:32:38.829Z,100.00
2023-01-12T20:35:05.199Z,100.00
2023-01-12T20:37:31.663Z,100.00
2023-01-12T20:39:58.083Z,100.00
2023-01-12T20:42:24.466Z,100.00
2023-01-12T20:44:50.917Z,100.00
2023-01-12T20:47:17.869Z,100.00
2023-01-12T20:49:44.268Z,100.00
2023-01-12T20:52:10.605Z,100.00
2023-01-12T20:54:37.031Z,100.00
2023-01-12T20:57:03.411Z,100.00
2023-01-12T20:59:29.766Z,100.00
2023-01-12T21:01:56.281Z,100.00
2023-01-12T21:04:22.530Z,100.00
2023-01-12T21:06:49.008Z,100.00
2023-01-12T21:09:15.379Z,100.00
2023-01-12T21:11:41.920Z,100.00
2023-01-12T21:14:08.222Z,100.00
2023-01-12T21:16:34.609Z,100.00
2023-01-12T21:19:00.898Z,100.00
2023-01-12T21:21:27.310Z,100.00
2023-01-12T21:23:53.706Z,100.00
2023-01-12T21:26:20.116Z,100.00
2023-01-12T21:28:46.481Z,100.00
2023-01-12T21:31:12.849Z,100.00
2023-01-12T21:33:39.211Z,100.00
2023-01-12T21:36:05.575Z,100.00
2023-01-12T21:38:32.035Z,100.00
2023-01-12T21:40:58.407Z,100.00
2023-01-12T21:43:24.940Z,100.00
2023-01-12T21:45:51.326Z,100.00
2023-01-12T21:48:17.609Z,100.00
2023-01-12T21:50:44.036Z,100.00
2023-01-12T21:53:10.431Z,100.00
2023-01-12T21:55:36.822Z,100.00
2023-01-12T21:58:03.200Z,100.00
2023-01-12T22:00:29.549Z,100.00
2023-01-12T22:02:55.904Z,100.00
2023-01-12T22:05:22.229Z,100.00
2023-01-12T22:07:48.589Z,100.00
2023-01-12T22:10:14.991Z,100.00
2023-01-12T22:12:41.404Z,100.00
2023-01-12T22:15:07.802Z,100.00
2023-01-12T22:17:34.155Z,100.00
2023-01-12T22:20:00.517Z,100.00
2023-01-12T22:22:26.933Z,100.00
2023-01-12T22:24:53.314Z,100.00
2023-01-12T22:27:19.668Z,100.00
2023-01-12T22:29:46.024Z,100.00
2023-01-12T22:32:12.337Z,100.00
2023-01-12T22:34:38.710Z,100.00
2023-01-12T22:37:05.095Z,100.00
2023-01-12T22:39:31.445Z,100.00
2023-01-12T22:41:57.833Z,100.00
2023-01-12T22:44:24.264Z,100.00
2023-01-12T22:46:50.673Z,100.00
2023-01-12T22:49:17.036Z,100.00
2023-01-12T22:51:43.473Z,100.00
2023-01-12T22:54:09.797Z,100.00
2023-01-12T22:56:36.132Z,100.00
2023-01-12T22:59:02.541Z,100.00
2023-01-12T23:01:28.889Z,100.00
2023-01-12T23:03:55.189Z,100.00
2023-01-12T23:06:21.739Z,100.00
2023-01-12T23:08:48.038Z,100.00
2023-01-12T23:11:14.351Z,100.00
2023-01-12T23:13:40.712Z,100.00
2023-01-12T23:16:07.139Z,100.00
2023-01-12T23:18:33.591Z,100.00
2023-01-12T23:20:59.908Z,100.00
2023-01-12T23:23:26.241Z,100.00
2023-01-12T23:25:52.590Z,100.00
2023-01-12T23:28:18.909Z,100.00
2023-01-12T23:30:45.238Z,100.00
2023-01-12T23:33:11.764Z,100.00
2023-01-12T23:35:38.097Z,100.00
2023-01-12T23:38:04.420Z,100.00
2023-01-12T23:40:31.013Z,100.00
2023-01-12T23:42:57.285Z,100.00
2023-01-12T23:45:23.599Z,100.00
2023-01-12T23:47:49.978Z,100.00
2023-01-12T23:50:16.282Z,100.00
2023-01-12T23:52:42.597Z,100.00
2023-01-12T23:55:09.015Z,100.00
2023-01-12T23:57:35.321Z,100.00
